Time;durP1;ratioP1;P1;durP2;ratioP2;P2;SDS_P1;SDS_P2;PMS_P1;PMS_P2;Temp;Humidity;BMP_temperature;BMP_pressure;BME280_temperature;BME280_humidity;BME280_pressure;Samples;Min_cycle;Max_cycle;Signal;HPM_P1;HPM_P2
2021/11/03 00:01:49;;;;;;;31.25;16.10;;;7.90;99.90;;;;;;4990784;28;20041;-87
2021/11/03 00:04:15;;;;;;;36.33;16.85;;;7.90;99.90;;;;;;5005906;28;20644;-87
2021/11/03 00:06:43;;;;;;;30.77;15.57;;;7.90;99.90;;;;;;5006170;28;20088;-87
2021/11/03 00:09:09;;;;;;;33.03;15.85;;;7.90;99.90;;;;;;5003846;28;20063;-86
2021/11/03 00:11:36;;;;;;;35.60;16.38;;;7.90;99.90;;;;;;4989896;28;20041;-87
2021/11/03 00:14:03;;;;;;;32.35;15.77;;;7.80;99.90;;;;;;5007389;28;20061;-87
2021/11/03 00:16:28;;;;;;;29.17;14.40;;;7.80;99.90;;;;;;5007256;28;20068;-86
2021/11/03 00:18:54;;;;;;;33.15;15.50;;;7.80;99.90;;;;;;4992999;28;20076;-86
2021/11/03 00:21:20;;;;;;;34.33;15.70;;;7.80;99.90;;;;;;5005828;28;20037;-87
2021/11/03 00:23:46;;;;;;;34.05;16.23;;;7.80;99.90;;;;;;5003347;28;20037;-86
2021/11/03 00:26:12;;;;;;;38.28;17.35;;;7.80;99.90;;;;;;5000501;28;20041;-86
2021/11/03 00:28:38;;;;;;;36.67;16.90;;;7.70;99.90;;;;;;5008197;28;20043;-86
2021/11/03 00:31:04;;;;;;;38.75;17.30;;;7.80;99.90;;;;;;5019150;28;20041;-86
2021/11/03 00:33:31;;;;;;;37.65;16.50;;;7.80;99.90;;;;;;5021106;28;20126;-87
2021/11/03 00:36:01;;;;;;;30.75;15.75;;;7.80;99.90;;;;;;5006790;28;20407;-86
2021/11/03 00:38:27;;;;;;;37.72;17.13;;;7.80;99.90;;;;;;5002000;28;20044;-86
2021/11/03 00:40:53;;;;;;;35.13;15.38;;;7.80;99.90;;;;;;4989130;28;20040;-87
2021/11/03 00:43:20;;;;;;;32.22;15.38;;;7.70;99.90;;;;;;4991359;28;20072;-85
2021/11/03 00:45:47;;;;;;;39.35;16.58;;;7.70;99.90;;;;;;4989340;28;20049;-87
2021/11/03 00:48:13;;;;;;;32.80;15.13;;;7.70;99.90;;;;;;5022394;28;20203;-87
2021/11/03 00:50:40;;;;;;;32.55;14.65;;;7.70;99.90;;;;;;5021542;28;20069;-87
2021/11/03 00:53:06;;;;;;;29.00;14.05;;;7.70;99.90;;;;;;5006474;28;20041;-86
2021/11/03 00:55:32;;;;;;;30.35;14.93;;;7.70;99.90;;;;;;5001269;28;20033;-85
2021/11/03 00:57:58;;;;;;;31.30;14.50;;;7.70;99.90;;;;;;4988514;28;20037;-87
2021/11/03 01:00:24;;;;;;;23.80;12.73;;;7.70;99.90;;;;;;4988499;28;20037;-87
2021/11/03 01:02:50;;;;;;;26.17;13.35;;;7.60;99.90;;;;;;5004476;28;20033;-86
2021/11/03 01:05:19;;;;;;;31.48;14.40;;;7.60;99.90;;;;;;4995906;28;20496;-86
2021/11/03 01:07:45;;;;;;;33.05;13.95;;;7.60;99.90;;;;;;4994757;28;20073;-87
2021/11/03 01:10:12;;;;;;;26.02;13.45;;;7.60;99.90;;;;;;5004320;28;20068;-86
2021/11/03 01:12:39;;;;;;;30.20;13.80;;;7.50;99.90;;;;;;5020442;28;20048;-87
2021/11/03 01:15:10;;;;;;;24.98;13.32;;;7.50;99.90;;;;;;4986513;28;20046;-85
2021/11/03 01:17:36;;;;;;;31.60;13.85;;;7.50;99.90;;;;;;5002641;28;20093;-86
2021/11/03 01:20:04;;;;;;;24.15;12.57;;;7.50;99.90;;;;;;5000006;28;20034;-86
2021/11/03 01:22:30;;;;;;;23.08;12.25;;;7.50;99.90;;;;;;5019807;28;20068;-86
2021/11/03 01:24:56;;;;;;;26.58;13.13;;;7.50;99.90;;;;;;4987038;28;20044;-86
2021/11/03 01:27:21;;;;;;;24.73;12.98;;;7.50;99.90;;;;;;5001926;28;20033;-88
2021/11/03 01:29:47;;;;;;;23.05;12.55;;;7.50;99.90;;;;;;5003440;28;20045;-85
2021/11/03 01:32:13;;;;;;;23.35;12.57;;;7.50;99.90;;;;;;4983400;28;20037;-86
2021/11/03 01:34:39;;;;;;;21.77;12.50;;;7.40;99.90;;;;;;5001851;28;20045;-86
2021/11/03 01:37:05;;;;;;;22.45;11.95;;;7.40;99.90;;;;;;5003353;28;20037;-85
2021/11/03 01:39:31;;;;;;;21.08;12.23;;;7.40;99.90;;;;;;5038829;28;20049;-87
2021/11/03 01:41:57;;;;;;;20.02;12.40;;;7.40;99.90;;;;;;5003748;28;20043;-85
2021/11/03 01:44:23;;;;;;;22.65;11.73;;;7.40;99.90;;;;;;4988865;28;20387;-86
2021/11/03 01:47:27;;;;;;;19.20;11.20;;;7.30;99.90;;;;;;5019603;28;20718;-85
2021/11/03 01:49:52;;;;;;;23.88;12.38;;;7.40;99.90;;;;;;5017740;28;20041;-86
2021/11/03 01:52:19;;;;;;;23.15;12.65;;;7.30;99.90;;;;;;4999747;28;20100;-88
2021/11/03 01:54:50;;;;;;;18.92;11.60;;;7.30;99.90;;;;;;5000981;28;20075;-87
2021/11/03 01:57:23;;;;;;;19.63;11.13;;;7.30;99.90;;;;;;5016268;28;20120;-86
2021/11/03 01:59:53;;;;;;;18.00;10.30;;;7.30;99.90;;;;;;5000813;28;20135;-86
2021/11/03 02:02:20;;;;;;;18.90;11.23;;;7.30;99.90;;;;;;5019739;28;20052;-86
2021/11/03 02:04:47;;;;;;;20.08;11.23;;;7.30;99.90;;;;;;5005216;28;20139;-84
2021/11/03 02:07:27;;;;;;;20.25;11.55;;;7.30;99.90;;;;;;4993711;28;20460;-87
2021/11/03 02:09:54;;;;;;;20.58;11.73;;;7.30;99.90;;;;;;5002346;28;20045;-87
2021/11/03 02:12:27;;;;;;;20.70;11.02;;;7.30;99.90;;;;;;5034366;28;20048;-87
2021/11/03 02:14:53;;;;;;;25.40;12.57;;;7.30;99.90;;;;;;5014248;28;20507;-86
2021/11/03 02:17:21;;;;;;;22.33;11.70;;;7.20;99.90;;;;;;5001013;28;20033;-86
2021/11/03 02:19:47;;;;;;;23.75;11.90;;;7.20;99.90;;;;;;4985797;28;20124;-86
2021/11/03 02:22:18;;;;;;;21.25;12.05;;;7.20;99.90;;;;;;5002598;28;20152;-85
2021/11/03 02:24:52;;;;;;;22.60;12.05;;;7.20;99.90;;;;;;5034816;28;20107;-86
2021/11/03 02:27:19;;;;;;;18.83;12.20;;;7.20;99.90;;;;;;5005742;28;20129;-86
2021/11/03 02:29:45;;;;;;;21.42;11.88;;;7.20;99.90;;;;;;5004354;28;20071;-86
2021/11/03 02:32:24;;;;;;;25.00;12.20;;;7.20;99.90;;;;;;5005416;28;20688;-85
2021/11/03 02:34:51;;;;;;;20.70;12.50;;;7.20;99.90;;;;;;5021659;28;20068;-84
2021/11/03 02:37:29;;;;;;;23.95;13.07;;;7.20;99.90;;;;;;5021196;28;20030;-85
2021/11/03 02:40:25;;;;;;;20.25;12.32;;;7.10;99.90;;;;;;5004570;28;20045;-85
2021/11/03 02:42:58;;;;;;;21.77;12.63;;;7.10;99.90;;;;;;5019404;28;20045;-85
2021/11/03 02:45:31;;;;;;;21.70;13.32;;;7.10;99.90;;;;;;5029387;28;20049;-85
2021/11/03 02:47:57;;;;;;;22.70;13.27;;;7.10;99.90;;;;;;5016608;28;20121;-86
2021/11/03 02:50:23;;;;;;;21.65;12.95;;;7.10;99.90;;;;;;4988416;28;20065;-86
2021/11/03 02:52:49;;;;;;;25.90;14.57;;;7.10;99.90;;;;;;5022043;28;20061;-85
2021/11/03 02:55:15;;;;;;;22.67;13.13;;;7.00;99.90;;;;;;4992456;28;20103;-84
2021/11/03 02:57:40;;;;;;;21.95;12.70;;;7.00;99.90;;;;;;5021844;28;20037;-84
2021/11/03 03:00:12;;;;;;;24.50;13.10;;;7.00;99.90;;;;;;4989360;28;20041;-85
2021/11/03 03:02:38;;;;;;;23.05;13.45;;;7.00;99.90;;;;;;5026759;28;20056;-85
2021/11/03 03:05:05;;;;;;;23.27;13.73;;;7.00;99.90;;;;;;4976805;28;20045;-85
2021/11/03 03:07:30;;;;;;;29.88;15.88;;;7.00;99.90;;;;;;5000654;28;20048;-86
2021/11/03 03:09:58;;;;;;;24.73;15.05;;;7.00;99.90;;;;;;5004689;28;20038;-85
2021/11/03 03:12:27;;;;;;;31.13;16.08;;;6.90;99.90;;;;;;5004319;28;20041;-85
2021/11/03 03:14:54;;;;;;;23.45;14.65;;;6.90;99.90;;;;;;5004658;28;20120;-85
2021/11/03 03:17:20;;;;;;;28.42;16.02;;;6.90;99.90;;;;;;5003242;28;20504;-85
2021/11/03 03:19:47;;;;;;;33.67;17.65;;;6.90;99.90;;;;;;5017665;28;20094;-85
2021/11/03 03:22:15;;;;;;;28.70;17.10;;;6.80;99.90;;;;;;5020451;28;20499;-85
2021/11/03 03:24:42;;;;;;;31.83;17.08;;;6.90;99.90;;;;;;5002996;28;20080;-85
2021/11/03 03:27:08;;;;;;;30.50;18.23;;;6.80;99.90;;;;;;5022999;28;20411;-85
2021/11/03 03:29:34;;;;;;;32.22;18.10;;;6.80;99.90;;;;;;5023499;28;20042;-86
2021/11/03 03:32:00;;;;;;;31.90;18.17;;;6.80;99.90;;;;;;4984628;28;20041;-86
2021/11/03 03:34:28;;;;;;;32.60;17.92;;;6.70;99.90;;;;;;5002858;28;20038;-86
2021/11/03 03:36:55;;;;;;;32.08;18.02;;;6.70;99.90;;;;;;5007330;28;20140;-85
2021/11/03 03:39:23;;;;;;;28.30;17.27;;;6.70;99.90;;;;;;5002018;28;20052;-85
2021/11/03 03:41:56;;;;;;;30.42;17.75;;;6.60;99.90;;;;;;5002064;28;20073;-86
2021/11/03 03:44:23;;;;;;;31.23;18.15;;;6.60;99.90;;;;;;5003317;28;20037;-85
2021/11/03 03:46:49;;;;;;;29.73;18.42;;;6.50;99.90;;;;;;5019122;28;20041;-86
2021/11/03 03:49:16;;;;;;;33.53;18.63;;;6.50;99.90;;;;;;5002241;28;20056;-85
2021/11/03 03:51:42;;;;;;;37.67;19.42;;;6.50;99.90;;;;;;5016862;28;20038;-86
2021/11/03 03:54:08;;;;;;;32.38;18.90;;;6.40;99.90;;;;;;5004005;28;20033;-86
2021/11/03 03:56:34;;;;;;;34.72;20.20;;;6.40;99.90;;;;;;4995223;28;20045;-85
2021/11/03 03:59:00;;;;;;;36.80;20.45;;;6.30;99.90;;;;;;5019637;28;20041;-86
2021/11/03 04:01:28;;;;;;;38.65;20.80;;;6.30;99.90;;;;;;4986557;28;20048;-85
2021/11/03 04:03:54;;;;;;;38.58;20.90;;;6.20;99.90;;;;;;5004504;28;20042;-86
2021/11/03 04:06:21;;;;;;;34.05;20.63;;;6.20;99.90;;;;;;4987124;28;20037;-86
2021/11/03 04:08:47;;;;;;;36.42;21.58;;;6.20;99.90;;;;;;5022314;28;20969;-86
2021/11/03 04:11:13;;;;;;;37.63;20.77;;;6.10;99.90;;;;;;5019632;28;20116;-86
2021/11/03 04:13:40;;;;;;;45.05;21.95;;;6.10;99.90;;;;;;5004311;28;20508;-85
2021/11/03 04:16:06;;;;;;;51.08;25.20;;;6.00;99.90;;;;;;5003740;28;20045;-85
2021/11/03 04:18:32;;;;;;;46.85;23.92;;;6.00;99.90;;;;;;5003955;28;20409;-86
2021/11/03 04:20:58;;;;;;;42.40;22.55;;;6.00;99.90;;;;;;4985577;28;20033;-85
2021/11/03 04:23:24;;;;;;;36.00;21.38;;;6.00;99.90;;;;;;4985237;28;20119;-86
2021/11/03 04:25:49;;;;;;;37.65;21.35;;;5.90;99.90;;;;;;4984685;28;20087;-85
2021/11/03 04:28:16;;;;;;;39.35;20.90;;;5.90;99.90;;;;;;4988764;28;20090;-86
2021/11/03 04:30:42;;;;;;;43.67;21.88;;;5.90;99.90;;;;;;5026708;28;20053;-85
2021/11/03 04:33:08;;;;;;;37.90;21.25;;;5.80;99.90;;;;;;4966066;28;20525;-86
2021/11/03 04:35:34;;;;;;;48.00;23.45;;;5.70;99.90;;;;;;5001302;28;20048;-84
2021/11/03 04:38:01;;;;;;;49.80;24.67;;;5.70;99.90;;;;;;5005516;28;20040;-86
2021/11/03 04:40:28;;;;;;;50.83;24.67;;;5.70;99.90;;;;;;5033864;28;20073;-86
2021/11/03 04:42:57;;;;;;;53.85;24.45;;;5.70;99.90;;;;;;5018584;28;20672;-86
2021/11/03 04:45:24;;;;;;;51.63;25.50;;;5.70;99.90;;;;;;4995767;28;20377;-86
2021/11/03 04:47:50;;;;;;;52.67;25.05;;;5.70;99.90;;;;;;5021266;28;20052;-86
2021/11/03 04:50:22;;;;;;;48.75;24.98;;;5.70;99.90;;;;;;5020865;28;20038;-85
2021/11/03 04:52:48;;;;;;;;;;;5.70;99.90;;;;;;5021140;28;20072;-86
2021/11/03 04:55:14;;;;;;;52.28;25.63;;;5.60;99.90;;;;;;5003864;28;20003;-86
2021/11/03 04:57:40;;;;;;;51.10;25.00;;;5.60;99.90;;;;;;5004312;28;20131;-86
2021/11/03 05:00:09;;;;;;;56.30;26.00;;;5.60;99.90;;;;;;5001577;28;20041;-86
2021/11/03 05:02:35;;;;;;;55.28;26.85;;;5.50;99.90;;;;;;5004472;28;20041;-85
2021/11/03 05:05:01;;;;;;;57.53;27.15;;;5.50;99.90;;;;;;5020469;28;20527;-86
2021/11/03 05:07:27;;;;;;;65.57;28.63;;;5.40;99.90;;;;;;5020020;28;20166;-86
2021/11/03 05:09:52;;;;;;;70.88;30.75;;;5.40;99.90;;;;;;5021836;28;20511;-84
2021/11/03 05:12:18;;;;;;;81.07;33.20;;;5.40;99.90;;;;;;5001991;28;20072;-84
2021/11/03 05:14:44;;;;;;;115.47;35.17;;;5.40;99.90;;;;;;5014665;28;20041;-84
2021/11/03 05:17:10;;;;;;;158.70;34.90;;;5.40;99.90;;;;;;4999085;28;20485;-84
2021/11/03 05:19:35;;;;;;;175.30;34.95;;;5.40;99.90;;;;;;5004365;28;20033;-84
2021/11/03 05:22:03;;;;;;;175.02;40.00;;;5.30;99.90;;;;;;4985960;28;20378;-83
2021/11/03 05:24:29;;;;;;;286.90;44.40;;;5.30;99.90;;;;;;5003532;28;20128;-85
2021/11/03 05:26:55;;;;;;;298.05;44.83;;;5.20;99.90;;;;;;5000852;28;20041;-84
2021/11/03 05:29:22;;;;;;;240.82;44.85;;;5.20;99.90;;;;;;4987311;28;20128;-84
2021/11/03 05:31:48;;;;;;;241.00;43.70;;;5.20;99.90;;;;;;4997506;28;20043;-84
2021/11/03 05:34:14;;;;;;;179.55;44.70;;;5.20;99.90;;;;;;4994157;28;20041;-85
2021/11/03 05:36:40;;;;;;;243.02;50.05;;;5.20;99.90;;;;;;5013080;28;20060;-85
2021/11/03 05:39:10;;;;;;;352.05;55.83;;;5.20;99.90;;;;;;5016187;28;20034;-84
2021/11/03 05:41:38;;;;;;;362.08;56.38;;;5.20;99.90;;;;;;4998610;28;20037;-84
2021/11/03 05:44:17;;;;;;;333.50;53.53;;;5.20;99.90;;;;;;4991171;28;20033;-84
2021/11/03 05:46:55;;;;;;;431.23;59.22;;;5.20;99.90;;;;;;5011631;28;20128;-85
2021/11/03 05:49:27;;;;;;;357.85;55.90;;;5.20;99.90;;;;;;4996872;28;20048;-83
2021/11/03 05:51:54;;;;;;;447.57;60.87;;;5.20;99.90;;;;;;4999444;28;20110;-85
2021/11/03 05:54:24;;;;;;;464.95;59.45;;;5.20;99.90;;;;;;5033529;28;20048;-85
2021/11/03 05:56:50;;;;;;;281.20;54.65;;;5.20;99.90;;;;;;4996227;28;20040;-84
2021/11/03 05:59:16;;;;;;;479.20;63.30;;;5.30;99.90;;;;;;4988458;28;20708;-84
2021/11/03 06:01:41;;;;;;;376.08;60.33;;;5.30;99.90;;;;;;4995369;28;20878;-84
2021/11/03 06:04:07;;;;;;;285.85;59.38;;;5.30;99.90;;;;;;5010767;28;20464;-84
2021/11/03 06:06:33;;;;;;;299.70;58.20;;;5.30;99.90;;;;;;4996425;28;20045;-84
2021/11/03 06:09:00;;;;;;;440.90;60.17;;;5.30;99.90;;;;;;4997300;28;20111;-85
2021/11/03 06:11:27;;;;;;;451.17;63.88;;;5.30;99.90;;;;;;5001489;28;20048;-84
2021/11/03 06:13:53;;;;;;;272.00;56.70;;;5.30;99.90;;;;;;4989853;28;20038;-84
2021/11/03 06:16:20;;;;;;;464.33;63.80;;;5.30;99.90;;;;;;5005845;28;20115;-83
2021/11/03 06:18:45;;;;;;;438.75;63.38;;;5.30;99.90;;;;;;5018246;28;20040;-84
2021/11/03 06:21:11;;;;;;;402.90;60.22;;;5.30;99.90;;;;;;5003524;28;20057;-84
2021/11/03 06:23:38;;;;;;;469.55;63.00;;;5.30;99.90;;;;;;5001955;28;20040;-84
2021/11/03 06:26:05;;;;;;;337.40;46.65;;;5.30;99.90;;;;;;5025424;28;20045;-84
2021/11/03 06:28:31;;;;;;;362.75;56.30;;;5.30;99.90;;;;;;4992776;28;20359;-84
2021/11/03 06:30:57;;;;;;;389.73;59.15;;;5.20;99.90;;;;;;5021821;28;20037;-84
2021/11/03 06:33:23;;;;;;;429.92;59.58;;;5.20;99.90;;;;;;5018176;28;20041;-85
2021/11/03 06:35:51;;;;;;;247.48;53.72;;;5.20;99.90;;;;;;4970369;28;20067;-86
2021/11/03 06:38:17;;;;;;;307.08;58.65;;;5.20;99.90;;;;;;5014815;28;20072;-83
2021/11/03 06:40:45;;;;;;;417.08;59.47;;;5.20;99.90;;;;;;4984532;28;20692;-85
2021/11/03 06:43:11;;;;;;;512.60;66.60;;;5.20;99.90;;;;;;4997838;28;20099;-86
2021/11/03 06:45:38;;;;;;;527.78;69.35;;;5.20;99.90;;;;;;5019076;28;20033;-86
2021/11/03 06:48:04;;;;;;;343.40;59.75;;;5.20;99.90;;;;;;5020777;28;20041;-86
2021/11/03 06:50:35;;;;;;;463.50;66.22;;;5.20;99.90;;;;;;4996156;28;20077;-85
2021/11/03 06:53:03;;;;;;;490.92;63.15;;;5.20;99.90;;;;;;5017927;28;20699;-85
2021/11/03 06:55:29;;;;;;;386.58;60.90;;;5.20;99.90;;;;;;4995886;28;20451;-84
2021/11/03 06:57:58;;;;;;;490.33;64.18;;;5.30;99.90;;;;;;5009310;28;20041;-85
2021/11/03 07:00:31;;;;;;;579.25;70.75;;;5.30;99.90;;;;;;5018324;28;20680;-85
2021/11/03 07:02:58;;;;;;;617.03;70.35;;;5.20;99.90;;;;;;5017871;28;20485;-86
2021/11/03 07:05:24;;;;;;;527.50;65.35;;;5.30;99.90;;;;;;5002748;28;20053;-85
2021/11/03 07:07:50;;;;;;;526.20;62.42;;;5.30;99.90;;;;;;4996966;28;20405;-86
2021/11/03 07:10:31;;;;;;;488.33;63.80;;;5.30;99.90;;;;;;5012625;28;20048;-86
2021/11/03 07:12:58;;;;;;;458.60;64.10;;;5.30;99.90;;;;;;5010822;28;20029;-84
2021/11/03 07:15:24;;;;;;;632.03;70.68;;;5.30;99.90;;;;;;5017003;28;20044;-84
2021/11/03 07:17:50;;;;;;;485.52;62.58;;;5.30;99.90;;;;;;5021140;28;20033;-85
2021/11/03 07:20:17;;;;;;;419.58;60.30;;;5.30;99.90;;;;;;4985207;28;20040;-84
2021/11/03 07:22:43;;;;;;;329.40;60.03;;;5.30;99.90;;;;;;5010894;28;20094;-86
2021/11/03 07:25:17;;;;;;;563.08;69.53;;;5.30;99.90;;;;;;4986277;28;20047;-87
2021/11/03 07:27:44;;;;;;;416.95;65.13;;;5.30;99.90;;;;;;5008326;28;20622;-85
2021/11/03 07:30:11;;;;;;;537.45;65.72;;;5.30;99.90;;;;;;5022825;28;20763;-84
2021/11/03 07:32:37;;;;;;;539.40;62.15;;;5.40;99.90;;;;;;5023139;28;20049;-84
2021/11/03 07:35:03;;;;;;;564.20;67.18;;;5.40;99.90;;;;;;5001738;28;20059;-84
2021/11/03 07:37:29;;;;;;;591.78;71.60;;;5.30;99.90;;;;;;5022600;28;20033;-86
2021/11/03 07:39:55;;;;;;;504.08;66.15;;;5.40;99.90;;;;;;4980223;28;20087;-85
2021/11/03 07:42:20;;;;;;;726.10;72.30;;;5.40;99.90;;;;;;5002615;28;20045;-85
2021/11/03 07:44:46;;;;;;;554.83;65.78;;;5.40;99.90;;;;;;4984558;28;20041;-83
2021/11/03 07:47:12;;;;;;;501.90;63.03;;;5.40;99.90;;;;;;4994752;28;20473;-84
2021/11/03 07:49:39;;;;;;;301.00;56.15;;;5.40;99.90;;;;;;4991774;28;20038;-85
2021/11/03 07:52:05;;;;;;;567.42;62.65;;;5.40;99.90;;;;;;5011920;28;20077;-85
2021/11/03 07:54:31;;;;;;;484.35;62.58;;;5.40;99.90;;;;;;5005831;28;20051;-85
2021/11/03 07:56:57;;;;;;;389.45;57.67;;;5.50;99.90;;;;;;4990068;28;20030;-85
2021/11/03 07:59:23;;;;;;;428.65;59.10;;;5.40;99.90;;;;;;4984526;28;20075;-86
2021/11/03 08:01:51;;;;;;;458.70;63.88;;;5.50;99.90;;;;;;4985669;28;20041;-86
2021/11/03 08:04:18;;;;;;;587.25;66.00;;;5.50;99.90;;;;;;5023004;28;20045;-84
2021/11/03 08:06:44;;;;;;;504.45;58.65;;;5.50;99.90;;;;;;5005039;28;20408;-85
2021/11/03 08:09:10;;;;;;;601.85;68.38;;;5.50;99.90;;;;;;4995306;28;20072;-85
2021/11/03 08:11:56;;;;;;;436.42;62.28;;;5.50;99.90;;;;;;5019529;28;20042;-85
2021/11/03 08:14:28;;;;;;;264.58;55.55;;;5.50;99.90;;;;;;5015730;28;22468;-85
2021/11/03 08:17:14;;;;;;;510.38;61.97;;;5.50;99.90;;;;;;5003952;28;20034;-84
2021/11/03 08:19:51;;;;;;;482.48;60.75;;;5.50;99.90;;;;;;5004183;28;20407;-84
2021/11/03 08:22:23;;;;;;;430.65;56.45;;;5.50;99.90;;;;;;5011343;28;20131;-84
2021/11/03 08:24:50;;;;;;;376.40;55.95;;;5.50;99.90;;;;;;5017432;28;20037;-86
2021/11/03 08:27:17;;;;;;;585.00;65.88;;;5.50;99.90;;;;;;5021377;28;20044;-85
2021/11/03 08:29:44;;;;;;;480.10;61.47;;;5.40;99.90;;;;;;5009494;28;20037;-84
2021/11/03 08:32:13;;;;;;;518.83;64.57;;;5.40;99.90;;;;;;4998691;28;20395;-86
2021/11/03 08:34:40;;;;;;;397.30;59.58;;;5.40;99.90;;;;;;5015317;28;20522;-87
2021/11/03 08:37:09;;;;;;;411.30;58.97;;;5.40;99.90;;;;;;5010901;28;20378;-84
2021/11/03 08:40:23;;;;;;;334.08;56.85;;;5.50;99.90;;;;;;5014835;28;20187;-86
2021/11/03 08:43:02;;;;;;;368.20;58.22;;;5.50;99.90;;;;;;5010588;28;20045;-85
2021/11/03 08:45:28;;;;;;;462.10;60.13;;;5.50;99.90;;;;;;5027055;28;20144;-83
2021/11/03 08:47:54;;;;;;;474.73;57.08;;;5.50;99.90;;;;;;5020598;28;20041;-85
2021/11/03 08:50:27;;;;;;;507.38;56.55;;;5.50;99.90;;;;;;4995356;28;20088;-85
2021/11/03 08:52:53;;;;;;;336.35;55.00;;;5.50;99.90;;;;;;5015665;28;20477;-82
2021/11/03 08:55:19;;;;;;;563.78;60.08;;;5.50;99.90;;;;;;4988278;28;20056;-85
2021/11/03 08:57:45;;;;;;;462.73;58.33;;;5.50;99.90;;;;;;5021790;28;20037;-85
2021/11/03 09:00:16;;;;;;;529.03;62.40;;;5.50;99.90;;;;;;5009417;28;20507;-86
2021/11/03 09:02:42;;;;;;;521.20;61.17;;;5.50;99.90;;;;;;5002781;28;20161;-85
2021/11/03 09:05:08;;;;;;;289.77;53.22;;;5.50;99.90;;;;;;4972266;28;20040;-84
2021/11/03 09:07:34;;;;;;;385.38;57.58;;;5.50;99.90;;;;;;4998315;28;20041;-86
2021/11/03 09:10:05;;;;;;;560.95;64.43;;;5.50;99.90;;;;;;4999700;28;20060;-83
2021/11/03 09:12:31;;;;;;;525.63;64.28;;;5.60;99.90;;;;;;5008517;28;20049;-84
2021/11/03 09:14:58;;;;;;;326.23;53.17;;;5.60;99.90;;;;;;4990230;28;20496;-86
2021/11/03 09:17:26;;;;;;;416.10;55.45;;;5.60;99.90;;;;;;5009371;28;20500;-84
2021/11/03 09:19:52;;;;;;;493.55;59.83;;;5.60;99.90;;;;;;5035635;28;20045;-85
2021/11/03 09:22:18;;;;;;;319.17;54.95;;;5.70;99.90;;;;;;5010778;28;20033;-86
2021/11/03 09:24:44;;;;;;;217.40;50.00;;;5.70;99.90;;;;;;5004074;28;20128;-87
2021/11/03 09:27:14;;;;;;;277.23;53.03;;;5.70;99.90;;;;;;4991770;28;20099;-86
2021/11/03 09:29:50;;;;;;;290.05;52.17;;;5.70;99.90;;;;;;5024209;28;20049;-86
2021/11/03 09:32:20;;;;;;;196.00;48.72;;;5.80;99.90;;;;;;5012979;28;20083;-85
2021/11/03 09:34:47;;;;;;;268.23;49.97;;;5.80;99.90;;;;;;5004148;28;20044;-83
2021/11/03 09:37:17;;;;;;;183.05;47.20;;;5.90;99.90;;;;;;5017548;28;20488;-86
2021/11/03 09:39:48;;;;;;;273.75;46.60;;;5.90;99.90;;;;;;5003907;28;20040;-85
2021/11/03 09:42:16;;;;;;;339.50;47.33;;;5.90;99.90;;;;;;5017257;28;20045;-85
2021/11/03 09:44:44;;;;;;;348.80;51.40;;;5.90;99.90;;;;;;5011662;28;20052;-86
2021/11/03 09:47:13;;;;;;;324.05;50.58;;;5.90;99.90;;;;;;4999623;28;20091;-86
2021/11/03 09:50:01;;;;;;;303.83;46.17;;;5.90;99.90;;;;;;5019953;28;20447;-86
2021/11/03 09:52:38;;;;;;;152.38;44.72;;;6.00;99.90;;;;;;5016630;28;20048;-86
2021/11/03 09:55:19;;;;;;;365.30;53.58;;;6.00;99.90;;;;;;5012854;28;20123;-87
2021/11/03 09:58:20;;;;;;;283.92;48.65;;;6.00;99.90;;;;;;5011657;28;20033;-85
2021/11/03 10:00:53;;;;;;;171.95;46.47;;;6.00;99.90;;;;;;4993108;28;20120;-84
2021/11/03 10:03:37;;;;;;;;;;;6.10;99.90;;;;;;4986031;28;20384;-85
2021/11/03 10:06:29;;;;;;;344.88;52.33;;;6.00;99.90;;;;;;4995387;28;19917;-86
2021/11/03 10:09:04;;;;;;;324.00;55.25;;;6.10;99.90;;;;;;5018183;28;20685;-85
2021/11/03 10:11:39;;;;;;;436.35;61.22;;;6.10;99.90;;;;;;4998291;28;20029;-85
2021/11/03 10:14:07;;;;;;;236.82;52.88;;;6.10;99.90;;;;;;5016170;28;20168;-86
2021/11/03 10:16:43;;;;;;;369.65;55.63;;;6.20;99.90;;;;;;5001318;28;20061;-87
2021/11/03 10:19:09;;;;;;;183.75;51.67;;;6.20;99.90;;;;;;5000324;28;20114;-87
2021/11/03 10:21:40;;;;;;;174.82;50.75;;;6.30;99.90;;;;;;5020696;28;20045;-86
2021/11/03 10:24:29;;;;;;;267.90;51.53;;;6.30;99.90;;;;;;4994653;28;20038;-87
2021/11/03 10:27:04;;;;;;;331.55;49.97;;;6.40;99.90;;;;;;5007523;28;20775;-87
2021/11/03 10:29:35;;;;;;;239.95;48.47;;;6.40;99.90;;;;;;5004592;28;20116;-87
2021/11/03 10:32:07;;;;;;;159.57;46.05;;;6.40;99.90;;;;;;5004531;28;20763;-87
2021/11/03 10:34:35;;;;;;;150.55;42.67;;;6.40;99.90;;;;;;5016684;28;20072;-87
2021/11/03 10:37:25;;;;;;;132.35;42.88;;;6.40;99.90;;;;;;5001967;28;20677;-87
2021/11/03 10:39:59;;;;;;;126.60;40.35;;;6.40;99.90;;;;;;5002396;28;20064;-87
2021/11/03 10:42:29;;;;;;;163.05;41.38;;;6.40;99.90;;;;;;5001472;28;20043;-87
2021/11/03 10:45:32;;;;;;;140.27;41.22;;;6.40;99.90;;;;;;5018755;28;20040;-87
2021/11/03 10:48:20;;;;;;;157.15;39.63;;;6.40;99.90;;;;;;5006223;28;20045;-86
2021/11/03 10:50:55;;;;;;;191.82;41.13;;;6.40;99.90;;;;;;5005210;28;20662;-87
2021/11/03 10:53:31;;;;;;;147.45;41.50;;;6.50;99.90;;;;;;5021817;28;20091;-85
2021/11/03 10:56:18;;;;;;;170.27;39.97;;;6.40;99.90;;;;;;5005013;28;20040;-86
2021/11/03 10:58:50;;;;;;;186.40;42.25;;;6.40;99.90;;;;;;5007564;28;20369;-87
2021/11/03 11:01:33;;;;;;;132.27;42.37;;;6.40;99.90;;;;;;5023482;28;20084;-87
2021/11/03 11:03:59;;;;;;;146.88;44.10;;;6.40;99.90;;;;;;5008100;28;20029;-84
2021/11/03 11:07:00;;;;;;;121.20;39.63;;;6.40;99.90;;;;;;5023920;28;20033;-86
2021/11/03 11:09:28;;;;;;;132.45;39.20;;;6.50;99.90;;;;;;5016102;28;20052;-85
2021/11/03 11:12:01;;;;;;;129.80;39.17;;;6.50;99.90;;;;;;5025716;28;20037;-82
2021/11/03 11:14:32;;;;;;;180.98;40.05;;;6.50;99.90;;;;;;5021350;28;20037;-85
2021/11/03 11:17:14;;;;;;;111.85;37.47;;;6.50;99.90;;;;;;5003538;28;20041;-84
2021/11/03 11:19:57;;;;;;;123.57;41.13;;;6.50;99.90;;;;;;5024728;28;20070;-83
2021/11/03 11:23:15;;;;;;;177.18;42.10;;;6.50;99.90;;;;;;5007417;28;20131;-84
2021/11/03 11:26:02;;;;;;;120.65;39.08;;;6.50;99.90;;;;;;4949054;28;20038;-84
2021/11/03 11:28:51;;;;;;;184.65;41.97;;;6.50;99.90;;;;;;5003181;28;21534;-86
2021/11/03 11:31:47;;;;;;;289.73;43.35;;;6.50;99.90;;;;;;5024682;28;20069;-87
2021/11/03 11:34:40;;;;;;;145.88;40.65;;;6.50;99.90;;;;;;5023024;28;20044;-88
2021/11/03 11:37:09;;;;;;;129.00;39.80;;;6.60;99.90;;;;;;5020323;28;20037;-85
2021/11/03 11:40:19;;;;;;;122.88;38.03;;;6.60;99.90;;;;;;5007379;28;20130;-86
2021/11/03 11:43:05;;;;;;;152.50;39.50;;;6.50;99.90;;;;;;5025368;28;20747;-87
2021/11/03 11:45:37;;;;;;;132.43;42.00;;;6.50;99.90;;;;;;5026092;28;20052;-87
2021/11/03 11:48:29;;;;;;;89.03;36.25;;;6.50;99.90;;;;;;5006329;28;20069;-85
2021/11/03 11:51:08;;;;;;;116.10;39.15;;;6.50;99.90;;;;;;5004565;28;20037;-85
2021/11/03 11:53:58;;;;;;;99.60;36.95;;;6.50;99.90;;;;;;5005321;28;20741;-84
2021/11/03 11:56:37;;;;;;;85.05;33.38;;;6.50;99.90;;;;;;5019794;28;20037;-84
2021/11/03 11:59:20;;;;;;;109.90;36.30;;;6.50;99.90;;;;;;5018345;28;20140;-83
2021/11/03 12:01:48;;;;;;;;;;;6.50;99.90;;;;;;5018364;28;20034;-85
2021/11/03 12:04:29;;;;;;;100.38;36.88;;;6.50;99.90;;;;;;5004792;28;19995;-85
2021/11/03 12:06:55;;;;;;;84.53;34.55;;;6.50;99.90;;;;;;5004112;28;20072;-88
2021/11/03 12:09:40;;;;;;;109.50;36.13;;;6.50;99.90;;;;;;5015999;28;20065;-88
2021/11/03 12:12:05;;;;;;;135.27;39.50;;;6.60;99.90;;;;;;5003133;28;20041;-87
2021/11/03 12:14:43;;;;;;;102.18;37.88;;;6.60;99.90;;;;;;5002280;28;20244;-88
2021/11/03 12:17:09;;;;;;;97.20;37.72;;;6.60;99.90;;;;;;5020554;28;20443;-88
2021/11/03 12:19:38;;;;;;;113.07;36.95;;;6.60;99.90;;;;;;5004215;28;20107;-84
2021/11/03 12:22:06;;;;;;;110.32;35.28;;;6.60;99.90;;;;;;5002320;28;20092;-87
2021/11/03 12:24:37;;;;;;;118.47;37.53;;;6.60;99.90;;;;;;5015082;28;20128;-86
2021/11/03 12:27:23;;;;;;;101.63;36.83;;;6.70;99.90;;;;;;5014021;28;20045;-87
2021/11/03 12:30:03;;;;;;;98.28;36.75;;;6.60;99.90;;;;;;5001049;28;20124;-87
2021/11/03 12:32:39;;;;;;;82.28;34.50;;;6.60;99.90;;;;;;5010147;28;20608;-88
2021/11/03 12:35:40;;;;;;;79.35;34.55;;;6.70;99.90;;;;;;5010424;28;20041;-87
2021/11/03 12:38:12;;;;;;;99.00;37.92;;;6.70;99.90;;;;;;5023878;28;20393;-88
2021/11/03 12:40:44;;;;;;;89.80;35.33;;;6.80;99.90;;;;;;4997861;28;20308;-87
2021/11/03 12:43:20;;;;;;;;;;;6.80;99.90;;;;;;4992975;28;20044;-88
2021/11/03 12:46:08;;;;;;;94.82;37.70;;;6.80;99.90;;;;;;5022546;28;19931;-88
2021/11/03 12:48:56;;;;;;;101.47;38.33;;;6.80;99.90;;;;;;5003422;28;20075;-86
2021/11/03 12:51:50;;;;;;;87.82;34.53;;;6.90;99.90;;;;;;4993283;28;20136;-89